EST,Max TemperatureF,Mean TemperatureF,Min TemperatureF,Max Dew PointF,MeanDew PointF,Min DewpointF,Max Humidity, Mean Humidity, Min Humidity, Max Sea Level PressureIn, Mean Sea Level PressureIn, Min Sea Level PressureIn, Max VisibilityMiles, Mean VisibilityMiles, Min VisibilityMiles, Max Wind SpeedMPH, Mean Wind SpeedMPH, Max Gust SpeedMPH,PrecipitationIn, CloudCover, Events, WindDirDegrees
2013-12-1,47,41,34,41,36,26,96,83,69,30.42,30.15,30.01,10,6,0,15,6,18,0.27,8,Rain,317
2013-12-2,41,39,37,37,36,35,92,86,79,30.01,29.97,29.93,10,4,0,12,5,14,0.00,8,,331
2013-12-3,49,43,36,36,33,29,92,71,50,29.95,29.90,29.85,10,6,1,13,8,16,0.00,6,,320
2013-12-4,45,40,35,31,27,23,76,61,45,30.21,30.10,29.96,10,9,6,16,7,22,T,3,,289
2013-12-5,57,47,36,53,42,30,93,85,76,30.22,30.08,29.92,10,5,0,16,4,20,0.01,7,Fog,151
2013-12-6,57,46,35,54,44,32,93,74,54,30.13,29.97,29.88,10,7,2,20,11,24,0.30,8,Rain-Snow,288
2013-12-7,42,37,31,32,24,15,89,67,44,30.46,30.25,30.08,10,9,4,22,11,28,0.09,6,Rain-Snow,317
2013-12-8,32,30,27,16,13,11,55,49,43,30.59,30.54,30.46,10,10,10,14,7,20,0.00,6,,346
2013-12-9,48,37,26,41,32,15,96,72,47,30.48,30.18,29.88,10,3,1,18,12,22,0.43,8,Rain-Snow,71
2013-12-10,38,33,27,32,27,13,89,70,50,30.01,29.87,29.79,10,5,0,21,11,31,0.07,6,Fog-Snow,252
2013-12-11,32,28,24,17,16,14,68,61,53,30.22,30.14,30.04,10,10,10,22,14,29,0.00,2,,245
2013-12-12,27,23,18,16,4,-4,68,47,26,30.28,30.20,30.09,10,10,10,20,12,26,0.00,1,,287
2013-12-13,30,23,16,16,8,1,68,55,42,30.40,30.12,30.01,10,10,10,21,14,29,0.00,3,,274
2013-12-14,31,21,11,29,11,-8,88,65,42,30.61,30.46,30.16,10,5,0,32,14,38,0.22,7,Fog-Snow,44
2013-12-15,38,31,23,37,27,18,100,82,63,30.09,29.62,29.39,10,4,0,41,19,52,0.64,7,Fog-Rain-Snow,348
2013-12-16,30,25,20,21,11,5,75,55,35,30.22,29.97,29.75,10,9,4,25,14,31,T,3,Snow,279
2013-12-17,28,19,9,25,12,-3,96,73,49,30.29,30.12,29.95,10,4,0,22,10,30,0.53,6,Fog-Snow,4
2013-12-18,36,28,19,19,17,14,84,64,44,30.08,29.94,29.86,10,10,7,18,13,24,T,4,,298
2013-12-19,43,35,27,26,22,19,69,56,43,30.12,30.05,29.96,10,10,10,25,12,35,0.00,6,,233
2013-12-20,51,42,32,34,30,25,82,66,50,30.13,30.02,29.91,10,10,7,17,8,24,0.00,6,,201
2013-12-21,54,48,41,46,41,33,89,78,67,29.96,29.92,29.88,10,10,9,17,11,23,0.00,7,,215
2013-12-22,54,45,35,50,40,34,100,92,83,30.04,29.90,29.81,10,3,0,25,8,30,0.01,8,Fog-Rain,52
2013-12-23,40,37,33,36,34,30,100,93,85,30.09,30.04,29.98,10,4,0,14,6,17,0.68,8,Fog-Rain,341
2013-12-24,40,34,28,34,20,11,85,65,44,30.21,30.12,30.05,10,10,10,17,10,24,0.00,5,,321
2013-12-25,28,22,15,12,3,-2,60,49,38,30.56,30.45,30.21,10,10,10,23,10,31,T,4,,286
2013-12-26,36,29,21,31,23,5,92,70,47,30.51,30.27,30.09,10,8,1,17,7,24,0.05,7,Rain-Snow,204
2013-12-27,35,32,28,21,18,16,75,61,47,30.28,30.24,30.20,10,10,10,20,12,25,0.00,3,,257
2013-12-28,48,38,27,26,23,20,75,57,39,30.22,30.10,29.99,10,10,9,23,10,30,0.00,2,,230
2013-12-29,44,39,33,40,34,25,100,80,59,30.05,29.72,29.39,10,5,0,26,8,31,1.32,8,Rain-Snow,55
2013-12-30,44,32,19,34,23,6,92,65,38,30.17,29.85,29.51,10,10,10,26,14,36,0.00,3,,291
2013-12-31,26,20,14,13,2,-7,60,48,36,30.18,30.12,30.04,10,10,9,17,9,24,T,4,Snow,290